Time;durP1;ratioP1;P1;durP2;ratioP2;P2;SDS_P1;SDS_P2;PMS_P1;PMS_P2;Temp;Humidity;BMP_temperature;BMP_pressure;BME280_temperature;BME280_humidity;BME280_pressure;Samples;Min_cycle;Max_cycle;Signal;HPM_P1;HPM_P2
2021/12/25 00:16:19;;;;;;;2.88;1.42;;;4.90;95.90;;;;;;5824910;24;20035;-87
2021/12/25 01:02:49;;;;;;;1.98;1.20;;;4.40;95.80;;;;;;6022767;23;20079;-86
2021/12/25 01:06:11;;;;;;;3.10;1.38;;;4.50;95.90;;;;;;5985668;23;20024;-86
2021/12/25 01:09:33;;;;;;;2.50;1.17;;;4.40;95.80;;;;;;5931319;24;20032;-86
2021/12/25 01:12:23;;;;;;;;;;;4.30;95.80;;;;;;5935262;24;20024;-87
2021/12/25 01:25:55;;;;;;;2.50;1.40;;;4.00;95.80;;;;;;5721523;25;20081;-87
2021/12/25 01:29:08;;;;;;;3.15;1.45;;;4.00;95.80;;;;;;5671121;25;20021;-87
2021/12/25 01:38:49;;;;;;;3.42;1.65;;;3.80;95.80;;;;;;5692664;25;20028;-87
2021/12/25 01:41:11;;;;;;;3.55;1.75;;;3.70;95.80;;;;;;5671943;25;20017;-87
2021/12/25 01:50:35;;;;;;;5.47;2.53;;;3.50;95.80;;;;;;5588144;25;20036;-86
2021/12/25 01:53:31;;;;;;;5.30;2.67;;;3.50;95.80;;;;;;5618733;25;20096;-86
2021/12/25 01:57:00;;;;;;;3.88;1.90;;;3.40;95.80;;;;;;5646763;25;20026;-85
2021/12/25 01:59:59;;;;;;;3.85;1.90;;;3.40;95.90;;;;;;5753841;24;20129;-86
2021/12/25 02:03:17;;;;;;;5.80;2.72;;;3.30;95.90;;;;;;5854882;24;20572;-86
2021/12/25 02:27:47;;;;;;;5.70;3.00;;;3.10;95.90;;;;;;5773647;24;20019;-86
2021/12/25 02:30:53;;;;;;;6.65;3.00;;;3.10;95.90;;;;;;5766448;24;20054;-86
2021/12/25 02:33:51;;;;;;;6.40;2.88;;;3.00;95.80;;;;;;5758966;24;20024;-87
2021/12/25 02:37:15;;;;;;;8.02;3.67;;;3.10;95.80;;;;;;5735774;24;20099;-85
2021/12/25 02:40:28;;;;;;;6.43;3.17;;;3.20;95.90;;;;;;5672832;25;20021;-88
2021/12/25 02:43:22;;;;;;;5.35;2.95;;;2.90;95.80;;;;;;5665064;25;20496;-86
2021/12/25 02:46:11;;;;;;;6.22;2.92;;;3.00;95.80;;;;;;5657581;25;20029;-86
2021/12/25 02:48:58;;;;;;;6.20;3.08;;;3.00;95.80;;;;;;5702564;25;20107;-86
2021/12/25 02:55:36;;;;;;;5.32;2.88;;;3.00;95.80;;;;;;5736557;24;20239;-86
2021/12/25 02:58:21;;;;;;;5.93;2.97;;;2.90;95.70;;;;;;5768338;24;20031;-86
2021/12/25 03:01:09;;;;;;;5.18;2.83;;;2.90;95.70;;;;;;5785241;24;20118;-86
2021/12/25 03:03:35;;;;;;;5.95;2.67;;;3.00;95.70;;;;;;5797071;24;20023;-86
2021/12/25 03:06:10;;;;;;;6.80;3.30;;;2.90;95.70;;;;;;5819066;24;20030;-86
2021/12/25 03:08:45;;;;;;;6.68;3.15;;;2.80;95.70;;;;;;5793419;24;20523;-87
2021/12/25 03:15:13;;;;;;;6.28;2.72;;;2.90;95.70;;;;;;5923872;24;20031;-87
2021/12/25 03:17:39;;;;;;;5.47;2.75;;;2.80;95.70;;;;;;5960100;23;20039;-86
2021/12/25 03:20:08;;;;;;;5.63;2.97;;;2.80;95.70;;;;;;5982213;23;20076;-86
2021/12/25 03:22:35;;;;;;;5.20;2.70;;;2.80;95.70;;;;;;6008124;23;20024;-87
2021/12/25 03:25:01;;;;;;;5.53;2.90;;;2.80;95.70;;;;;;6027835;23;20455;-86
2021/12/25 03:27:30;;;;;;;5.05;2.40;;;2.80;95.70;;;;;;6005586;23;20023;-87
2021/12/25 03:29:56;;;;;;;6.32;2.80;;;2.80;95.70;;;;;;5995501;23;20016;-87
2021/12/25 03:32:33;;;;;;;6.53;2.83;;;2.80;95.70;;;;;;6024324;23;20031;-86
2021/12/25 03:35:05;;;;;;;6.30;3.13;;;2.80;95.60;;;;;;5992218;23;20066;-86
2021/12/25 03:37:45;;;;;;;8.30;3.63;;;2.70;95.50;;;;;;5969115;23;20035;-86
2021/12/25 03:40:11;;;;;;;5.75;2.85;;;2.70;95.60;;;;;;6049894;23;20078;-87
2021/12/25 03:42:45;;;;;;;8.25;3.22;;;2.60;95.60;;;;;;6098465;23;20018;-88
2021/12/25 03:46:05;;;;;;;6.63;3.20;;;2.60;95.60;;;;;;6028163;23;20090;-88
2021/12/25 03:49:04;;;;;;;6.97;2.83;;;2.60;95.60;;;;;;5900453;24;20104;-87
2021/12/25 03:58:13;;;;;;;6.13;2.90;;;2.50;95.60;;;;;;5815877;24;20136;-86
2021/12/25 04:01:26;;;;;;;5.85;3.00;;;2.40;95.60;;;;;;5793143;24;20134;-87
2021/12/25 04:04:22;;;;;;;4.70;2.38;;;2.40;95.60;;;;;;5811484;24;20146;-86
2021/12/25 04:09:40;;;;;;;5.40;2.40;;;2.30;95.60;;;;;;5738592;24;20025;-88
2021/12/25 04:12:19;;;;;;;5.20;2.38;;;2.30;95.60;;;;;;5765311;24;20380;-86
2021/12/25 04:14:45;;;;;;;5.32;2.38;;;2.30;95.60;;;;;;5743053;24;20103;-87
2021/12/25 04:17:20;;;;;;;4.95;2.10;;;2.20;95.60;;;;;;5762334;24;20074;-87
2021/12/25 04:19:49;;;;;;;5.03;2.20;;;2.20;95.60;;;;;;5780718;24;20476;-87
2021/12/25 04:22:20;;;;;;;4.65;2.22;;;2.20;95.50;;;;;;5789486;24;20023;-87
2021/12/25 04:24:49;;;;;;;3.85;2.03;;;2.20;95.60;;;;;;5826893;24;20017;-87
2021/12/25 04:27:18;;;;;;;5.47;2.15;;;2.10;95.60;;;;;;5864635;24;20130;-86
2021/12/25 04:30:03;;;;;;;3.83;2.00;;;2.20;95.60;;;;;;5888384;24;20025;-86
2021/12/25 05:04:18;;;;;;;3.25;1.45;;;1.80;95.40;;;;;;5852829;24;20031;-87
2021/12/25 05:10:17;;;;;;;;;;;1.70;95.40;;;;;;5715318;25;20029;-86
2021/12/25 05:13:18;;;;;;;2.33;1.33;;;1.60;95.40;;;;;;5707081;25;19917;-87
2021/12/25 05:15:50;;;;;;;1.98;1.20;;;1.60;95.40;;;;;;5694451;25;20057;-88
2021/12/25 05:18:16;;;;;;;2.13;1.10;;;1.50;95.40;;;;;;5661245;25;20025;-88
2021/12/25 05:21:27;;;;;;;1.40;1.10;;;1.70;95.50;;;;;;5643214;25;20451;-89
2021/12/25 05:27:56;;;;;;;1.65;1.05;;;1.30;95.40;;;;;;5677258;25;20424;-87
2021/12/25 05:30:25;;;;;;;2.35;1.10;;;1.40;95.50;;;;;;5680114;24;20206;-88
2021/12/25 05:33:18;;;;;;;1.65;0.80;;;1.30;95.40;;;;;;5736236;24;20119;-87
2021/12/25 05:35:50;;;;;;;1.15;0.88;;;1.40;95.40;;;;;;5660959;25;20329;-87
2021/12/25 05:38:27;;;;;;;2.25;1.02;;;1.50;95.50;;;;;;5642963;25;20026;-87
2021/12/25 05:40:59;;;;;;;1.48;0.80;;;1.20;95.40;;;;;;5729213;24;20020;-88
2021/12/25 05:43:54;;;;;;;0.90;0.73;;;1.30;95.50;;;;;;5806742;24;20027;-88
2021/12/25 05:46:32;;;;;;;1.02;0.50;;;1.30;95.40;;;;;;5790245;24;20027;-87
2021/12/25 05:49:09;;;;;;;1.35;0.88;;;1.20;95.40;;;;;;5762939;24;20023;-89
2021/12/25 05:51:49;;;;;;;0.40;0.40;;;1.30;95.40;;;;;;5838958;24;20101;-88
2021/12/25 05:54:32;;;;;;;1.48;0.77;;;1.20;95.40;;;;;;5876128;24;20064;-89
2021/12/25 05:57:40;;;;;;;1.38;0.85;;;1.10;95.40;;;;;;5864700;24;20026;-87
2021/12/25 06:04:27;;;;;;;1.02;0.63;;;1.00;95.40;;;;;;5789504;24;20487;-88
2021/12/25 06:07:03;;;;;;;1.23;0.55;;;1.00;95.30;;;;;;5767707;24;20023;-86
2021/12/25 06:14:10;;;;;;;1.17;0.77;;;0.90;95.30;;;;;;5708426;25;20033;-88
2021/12/25 06:17:11;;;;;;;1.42;0.55;;;0.90;95.30;;;;;;5740985;24;20558;-88
2021/12/25 06:23:46;;;;;;;1.55;0.85;;;0.80;95.30;;;;;;5804482;24;20081;-87
2021/12/25 06:26:45;;;;;;;1.38;0.88;;;0.70;95.30;;;;;;5708805;25;20478;-88
2021/12/25 06:30:33;;;;;;;1.40;0.90;;;0.80;95.30;;;;;;5664802;25;20026;-90
2021/12/25 06:38:05;;;;;;;1.95;0.80;;;0.70;95.30;;;;;;5709515;25;20521;-89
2021/12/25 06:48:37;;;;;;;1.30;0.80;;;0.50;95.20;;;;;;5819934;24;20652;-87
2021/12/25 06:51:34;;;;;;;1.27;0.88;;;0.50;95.20;;;;;;5734843;24;20436;-87
2021/12/25 07:05:18;;;;;;;0.95;0.63;;;0.40;95.10;;;;;;5686700;25;20530;-86
2021/12/25 07:11:40;;;;;;;1.55;0.93;;;0.40;95.10;;;;;;5683727;25;20040;-88
2021/12/25 07:18:35;;;;;;;1.10;0.90;;;0.30;95.10;;;;;;5678701;25;20033;-89
2021/12/25 07:46:45;;;;;;;1.33;0.77;;;0.00;95.00;;;;;;5705316;25;20100;-88
2021/12/25 07:49:17;;;;;;;1.20;0.80;;;0.00;95.00;;;;;;5768491;24;20011;-85
2021/12/25 07:51:43;;;;;;;1.42;0.75;;;-0.10;94.90;;;;;;5761056;24;20050;-87
2021/12/25 07:54:10;;;;;;;2.15;1.20;;;-0.10;94.90;;;;;;5846644;24;20018;-83
2021/12/25 07:56:37;;;;;;;2.42;1.20;;;-0.10;95.00;;;;;;5889351;24;20462;-85
2021/12/25 07:59:03;;;;;;;2.33;1.17;;;-0.20;94.90;;;;;;5890080;24;20009;-84
2021/12/25 08:01:43;;;;;;;1.77;1.10;;;-0.20;94.90;;;;;;5893566;24;20052;-84
2021/12/25 08:04:10;;;;;;;1.90;1.13;;;-0.30;95.00;;;;;;5916241;24;20488;-85
2021/12/25 08:06:36;;;;;;;2.50;1.25;;;-0.30;95.00;;;;;;5892516;24;20363;-84
2021/12/25 08:09:04;;;;;;;2.78;1.42;;;-0.30;95.00;;;;;;5941176;24;20037;-85
2021/12/25 08:11:30;;;;;;;2.88;1.30;;;-0.20;95.00;;;;;;5949597;24;20021;-84
2021/12/25 08:13:57;;;;;;;2.08;1.10;;;-0.40;95.00;;;;;;6068098;23;20015;-89
2021/12/25 08:16:23;;;;;;;1.75;1.10;;;-0.40;95.00;;;;;;6060492;23;20017;-85
2021/12/25 08:18:49;;;;;;;1.92;1.10;;;-0.30;95.00;;;;;;6043218;23;20014;-85
2021/12/25 08:21:15;;;;;;;2.10;1.10;;;-0.50;94.90;;;;;;6119782;23;20001;-86
2021/12/25 08:23:41;;;;;;;2.05;1.25;;;-0.50;94.90;;;;;;6190008;23;20009;-85
2021/12/25 08:26:08;;;;;;;2.00;1.25;;;-0.40;94.90;;;;;;6181261;23;20039;-85
2021/12/25 08:28:34;;;;;;;1.90;1.20;;;-0.70;94.80;;;;;;6178956;23;20005;-85
2021/12/25 08:31:01;;;;;;;2.88;1.15;;;-0.60;94.90;;;;;;6205881;23;20050;-85
2021/12/25 08:33:30;;;;;;;2.08;1.20;;;-0.50;94.90;;;;;;6177273;23;20016;-87
2021/12/25 08:36:27;;;;;;;2.33;1.17;;;-0.70;94.90;;;;;;6175701;23;20019;-88
2021/12/25 08:38:53;;;;;;;1.85;1.10;;;-0.70;94.90;;;;;;6196072;23;20008;-89
2021/12/25 08:41:28;;;;;;;2.35;1.15;;;-0.70;94.90;;;;;;6176166;23;20067;-87
2021/12/25 08:44:08;;;;;;;1.33;1.02;;;-0.80;94.90;;;;;;6162350;23;20552;-87
2021/12/25 08:46:56;;;;;;;1.35;0.80;;;-0.70;94.90;;;;;;6115635;23;20021;-87
2021/12/25 08:49:31;;;;;;;1.15;0.90;;;-0.80;94.90;;;;;;6094529;23;20018;-88
2021/12/25 08:52:08;;;;;;;1.30;0.73;;;-0.80;94.90;;;;;;6101584;23;20096;-90
2021/12/25 08:54:37;;;;;;;1.10;0.80;;;-0.80;94.90;;;;;;6124921;23;20029;-86
2021/12/25 08:57:05;;;;;;;1.27;0.80;;;-0.80;94.90;;;;;;6131336;23;20092;-86
2021/12/25 08:59:33;;;;;;;0.50;0.47;;;-0.80;94.90;;;;;;6135875;23;20477;-86
2021/12/25 09:02:00;;;;;;;0.98;0.55;;;-0.80;94.80;;;;;;6134213;23;20017;-87
2021/12/25 09:04:26;;;;;;;0.95;0.68;;;-0.90;94.80;;;;;;6109130;23;20100;-88
2021/12/25 09:06:52;;;;;;;1.27;0.70;;;-0.80;94.80;;;;;;6130434;23;20469;-85
2021/12/25 09:09:23;;;;;;;1.42;0.75;;;-0.90;94.70;;;;;;6203491;23;20008;-85
2021/12/25 09:11:49;;;;;;;1.20;0.70;;;-0.80;94.80;;;;;;6130542;23;20045;-87
2021/12/25 09:14:26;;;;;;;1.13;0.60;;;-0.80;94.70;;;;;;6113252;23;20737;-88
2021/12/25 09:16:52;;;;;;;1.30;0.70;;;-0.70;94.80;;;;;;6107294;23;20537;-81
2021/12/25 09:19:18;;;;;;;1.38;0.80;;;-0.80;94.70;;;;;;6083209;23;20022;-81
2021/12/25 09:21:44;;;;;;;1.38;0.68;;;-0.80;94.70;;;;;;6076352;23;20583;-82
2021/12/25 09:24:10;;;;;;;0.85;0.60;;;-0.80;94.60;;;;;;6099001;23;20018;-81
2021/12/25 09:26:35;;;;;;;0.85;0.55;;;-0.80;94.60;;;;;;6051392;23;20025;-82
2021/12/25 09:29:01;;;;;;;1.10;0.70;;;-0.80;94.60;;;;;;6046639;23;20022;-82
2021/12/25 09:31:27;;;;;;;1.08;0.85;;;-0.80;94.60;;;;;;6070216;23;20395;-81
2021/12/25 09:33:53;;;;;;;1.00;0.70;;;-0.80;94.50;;;;;;6046737;23;20011;-82
2021/12/25 09:36:20;;;;;;;1.25;0.70;;;-0.80;94.50;;;;;;6063160;23;20010;-81
2021/12/25 09:38:46;;;;;;;0.20;0.20;;;-0.80;94.50;;;;;;6126738;23;20016;-81
2021/12/25 09:41:13;;;;;;;0.75;0.32;;;-0.70;94.50;;;;;;6183229;23;20013;-82
2021/12/25 09:43:40;;;;;;;0.47;0.30;;;-0.70;94.50;;;;;;6110704;23;20020;-82
2021/12/25 09:46:07;;;;;;;1.00;0.40;;;-0.70;94.50;;;;;;6133502;23;20008;-82
2021/12/25 09:48:33;;;;;;;0.13;0.13;;;-0.60;94.50;;;;;;6207054;23;20039;-82
2021/12/25 09:51:00;;;;;;;0.63;0.30;;;-0.60;94.40;;;;;;6218667;23;20004;-81
2021/12/25 09:53:28;;;;;;;1.75;0.50;;;-0.60;94.40;;;;;;6193381;23;20065;-82
2021/12/25 09:55:54;;;;;;;0.30;0.22;;;-0.50;94.40;;;;;;6216885;23;20491;-83
2021/12/25 09:58:21;;;;;;;0.30;0.28;;;-0.60;94.30;;;;;;6219601;23;20054;-82
2021/12/25 10:00:51;;;;;;;0.73;0.40;;;-0.60;94.30;;;;;;6218993;23;20050;-81
2021/12/25 10:03:19;;;;;;;0.75;0.40;;;-0.60;94.30;;;;;;6245876;23;20436;-82
2021/12/25 10:05:47;;;;;;;0.65;0.25;;;-0.50;94.30;;;;;;6218924;23;20463;-82
2021/12/25 10:08:17;;;;;;;0.10;0.10;;;-0.50;94.20;;;;;;6194596;23;20020;-81
2021/12/25 10:10:55;;;;;;;0.68;0.30;;;-0.50;94.20;;;;;;6245675;23;20087;-81
2021/12/25 10:13:40;;;;;;;0.35;0.22;;;-0.50;94.20;;;;;;6193769;23;20012;-82
2021/12/25 10:16:21;;;;;;;0.30;0.30;;;-0.50;94.10;;;;;;6246119;23;20008;-82
2021/12/25 10:18:48;;;;;;;0.10;0.10;;;-0.50;94.10;;;;;;6218716;23;20094;-82
2021/12/25 10:21:29;;;;;;;0.43;0.30;;;-0.40;94.10;;;;;;6193630;23;20012;-81
2021/12/25 10:24:06;;;;;;;0.32;0.20;;;-0.40;94.00;;;;;;6219151;23;20012;-81
2021/12/25 10:26:33;;;;;;;0.57;0.30;;;-0.40;94.00;;;;;;6218479;23;20015;-81
2021/12/25 10:28:59;;;;;;;0.60;0.30;;;-0.40;94.00;;;;;;6219245;23;20016;-81
2021/12/25 10:31:32;;;;;;;0.17;0.17;;;-0.30;94.00;;;;;;6193412;23;20442;-81
2021/12/25 10:33:58;;;;;;;0.47;0.17;;;-0.30;94.00;;;;;;6168984;23;20019;-81
2021/12/25 10:36:28;;;;;;;0.10;0.10;;;-0.30;93.90;;;;;;6218043;23;20016;-82
2021/12/25 10:39:05;;;;;;;0.30;0.30;;;-0.30;93.80;;;;;;6218234;23;20008;-81
2021/12/25 10:41:34;;;;;;;0.90;0.30;;;-0.20;93.80;;;;;;6218877;23;20008;-81
2021/12/25 10:44:15;;;;;;;0.10;0.10;;;-0.20;93.80;;;;;;6194760;23;20004;-81
2021/12/25 10:46:52;;;;;;;0.65;0.30;;;-0.10;93.80;;;;;;6218192;23;20458;-81
2021/12/25 10:49:19;;;;;;;0.10;0.10;;;-0.10;93.70;;;;;;6193528;23;20012;-81
2021/12/25 10:51:47;;;;;;;0.47;0.10;;;0.00;93.70;;;;;;6218084;23;20016;-81
2021/12/25 10:54:15;;;;;;;0.40;0.15;;;-0.10;93.60;;;;;;6193527;23;20339;-81
2021/12/25 10:56:43;;;;;;;0.25;0.20;;;0.00;93.70;;;;;;6194436;23;20005;-82
2021/12/25 10:59:12;;;;;;;0.30;0.30;;;-0.10;93.60;;;;;;6193274;23;20107;-82
2021/12/25 11:01:43;;;;;;;0.28;0.20;;;-0.10;93.50;;;;;;6218797;23;20027;-82
2021/12/25 11:04:37;;;;;;;0.45;0.30;;;0.00;93.50;;;;;;6169505;23;20420;-81
2021/12/25 11:07:14;;;;;;;0.88;0.28;;;-0.10;93.40;;;;;;6193251;23;20034;-81
2021/12/25 11:09:40;;;;;;;0.38;0.38;;;0.00;93.40;;;;;;6193642;23;20379;-82
2021/12/25 11:12:15;;;;;;;0.30;0.30;;;-0.10;93.40;;;;;;6244989;23;20040;-83
2021/12/25 11:14:42;;;;;;;0.32;0.20;;;0.00;93.40;;;;;;6193936;23;20016;-83
2021/12/25 11:17:23;;;;;;;0.25;0.25;;;0.00;93.40;;;;;;6192992;23;20076;-83
2021/12/25 11:19:59;;;;;;;0.50;0.30;;;0.00;93.30;;;;;;6195118;23;20004;-82
2021/12/25 11:22:27;;;;;;;0.28;0.20;;;0.00;93.30;;;;;;6195449;23;20099;-82
2021/12/25 11:24:54;;;;;;;0.30;0.20;;;0.00;93.30;;;;;;6193228;23;20008;-82
2021/12/25 11:27:22;;;;;;;0.30;0.20;;;0.00;93.30;;;;;;6194535;23;20337;-82
2021/12/25 11:29:49;;;;;;;0.17;0.15;;;0.00;93.20;;;;;;6190824;23;20043;-84
2021/12/25 11:32:16;;;;;;;0.50;0.38;;;0.00;93.20;;;;;;6193901;23;20060;-82
2021/12/25 11:34:42;;;;;;;0.40;0.30;;;0.00;93.10;;;;;;6168813;23;20019;-82
2021/12/25 11:37:08;;;;;;;0.20;0.20;;;0.10;93.10;;;;;;6218305;23;20031;-82
2021/12/25 11:39:34;;;;;;;0.13;0.13;;;0.10;93.10;;;;;;6218757;23;20055;-82
2021/12/25 11:42:06;;;;;;;0.60;0.30;;;0.10;93.10;;;;;;6244865;23;20008;-83
2021/12/25 11:44:43;;;;;;;0.88;0.30;;;0.30;93.10;;;;;;6168442;23;20015;-81
2021/12/25 11:47:31;;;;;;;0.22;0.20;;;0.20;93.00;;;;;;6218761;23;20008;-82
2021/12/25 11:50:00;;;;;;;0.60;0.28;;;0.20;93.00;;;;;;6193949;23;20043;-81
2021/12/25 11:52:33;;;;;;;0.15;0.10;;;0.30;93.00;;;;;;6218595;23;20081;-81
2021/12/25 11:58:18;;;;;;;0.28;0.20;;;0.40;92.90;;;;;;6244390;22;20016;-82
2021/12/25 12:00:47;;;;;;;0.52;0.20;;;0.40;92.80;;;;;;6221067;22;20103;-82
2021/12/25 12:03:46;;;;;;;0.73;0.20;;;0.40;92.80;;;;;;6168583;22;20008;-81
2021/12/25 12:06:13;;;;;;;0.57;0.30;;;0.50;92.70;;;;;;6244645;22;20008;-81
2021/12/25 12:08:59;;;;;;;0.73;0.20;;;0.60;92.70;;;;;;6218019;22;20015;-81
2021/12/25 12:11:27;;;;;;;0.45;0.10;;;0.60;92.60;;;;;;6217450;22;20012;-81
2021/12/25 12:14:25;;;;;;;0.70;0.30;;;0.70;92.60;;;;;;6245195;22;20001;-80
2021/12/25 12:17:01;;;;;;;0.35;0.20;;;0.70;92.50;;;;;;6244786;22;20336;-81
2021/12/25 12:19:48;;;;;;;0.13;0.13;;;0.80;92.50;;;;;;6244889;22;20011;-81
2021/12/25 12:22:43;;;;;;;0.10;0.10;;;0.80;92.40;;;;;;6217387;22;20016;-81
2021/12/25 12:25:20;;;;;;;0.65;0.30;;;0.90;92.40;;;;;;6202280;22;20012;-81
2021/12/25 12:27:54;;;;;;;0.40;0.10;;;0.80;92.30;;;;;;6171857;22;20012;-82
2021/12/25 12:30:43;;;;;;;0.10;0.10;;;0.90;92.30;;;;;;6194450;22;20012;-81
2021/12/25 12:33:29;;;;;;;0.20;0.10;;;0.90;92.20;;;;;;6200160;23;20046;-82
2021/12/25 12:35:55;;;;;;;0.25;0.20;;;0.90;92.50;;;;;;6197879;23;20008;-82
2021/12/25 12:38:26;;;;;;;1.45;0.22;;;1.10;92.30;;;;;;6218759;22;20011;-82
2021/12/25 12:41:24;;;;;;;0.80;0.22;;;1.00;92.10;;;;;;6245245;22;20024;-83
2021/12/25 12:44:04;;;;;;;0.10;0.10;;;1.00;92.10;;;;;;6218838;22;20146;-81
2021/12/25 12:46:58;;;;;;;0.13;0.13;;;1.00;92.00;;;;;;6193375;22;20008;-80
2021/12/25 12:49:34;;;;;;;0.50;0.25;;;1.00;92.10;;;;;;6247024;22;20312;-82
2021/12/25 12:52:31;;;;;;;0.20;0.20;;;1.10;92.00;;;;;;6223717;22;20095;-82
2021/12/25 12:55:06;;;;;;;0.10;0.10;;;1.20;92.20;;;;;;6247576;22;20004;-82
2021/12/25 12:57:37;;;;;;;0.20;0.20;;;1.20;91.90;;;;;;6218387;22;20087;-82
2021/12/25 13:00:11;;;;;;;0.40;0.40;;;1.20;91.80;;;;;;6193373;22;20087;-82
2021/12/25 13:02:42;;;;;;;0.65;0.30;;;1.30;91.80;;;;;;6195625;23;20035;-82
2021/12/25 13:05:09;;;;;;;0.20;0.20;;;1.30;91.80;;;;;;6221810;23;20340;-80
2021/12/25 13:07:37;;;;;;;0.32;0.20;;;1.40;91.80;;;;;;6219692;23;20016;-82
2021/12/25 13:10:19;;;;;;;0.38;0.38;;;1.30;91.70;;;;;;6196675;22;20008;-80
2021/12/25 13:12:48;;;;;;;0.50;0.30;;;1.40;91.60;;;;;;6201892;22;20008;-83
2021/12/25 13:15:22;;;;;;;0.55;0.30;;;1.40;91.50;;;;;;6197482;23;20058;-82
2021/12/25 13:17:52;;;;;;;0.55;0.30;;;1.20;91.50;;;;;;6222651;22;20027;-83
2021/12/25 13:20:42;;;;;;;0.32;0.20;;;1.30;91.60;;;;;;6247657;22;20066;-81
2021/12/25 13:23:18;;;;;;;0.10;0.10;;;1.30;91.50;;;;;;6200100;22;20116;-83
2021/12/25 13:25:57;;;;;;;0.13;0.13;;;1.40;91.50;;;;;;6219148;23;20012;-83
2021/12/25 13:28:25;;;;;;;0.22;0.22;;;1.40;91.40;;;;;;6219829;22;20335;-81
2021/12/25 13:30:56;;;;;;;0.55;0.38;;;1.30;91.40;;;;;;6220303;22;20004;-79
2021/12/25 13:33:25;;;;;;;1.20;0.55;;;1.30;91.30;;;;;;6195279;22;20012;-80
2021/12/25 13:36:04;;;;;;;0.55;0.38;;;1.10;91.30;;;;;;6246465;22;20012;-81
2021/12/25 13:38:47;;;;;;;0.30;0.25;;;1.20;91.30;;;;;;6193144;22;20079;-81
2021/12/25 13:41:14;;;;;;;0.47;0.20;;;1.20;91.20;;;;;;6196782;22;20016;-82
2021/12/25 13:43:40;;;;;;;0.90;0.28;;;1.20;91.20;;;;;;6246194;22;20038;-84
2021/12/25 13:46:06;;;;;;;0.20;0.20;;;1.20;91.20;;;;;;6195103;22;20332;-81
2021/12/25 13:48:39;;;;;;;0.60;0.22;;;1.20;91.20;;;;;;6194840;22;20078;-83
2021/12/25 13:51:06;;;;;;;0.40;0.30;;;1.20;91.10;;;;;;6197056;22;20007;-81
2021/12/25 13:53:32;;;;;;;0.38;0.30;;;1.20;91.10;;;;;;6246087;22;20086;-81
2021/12/25 13:56:08;;;;;;;0.95;0.40;;;1.10;91.10;;;;;;6194178;22;20011;-82
2021/12/25 13:58:33;;;;;;;0.55;0.20;;;1.00;91.00;;;;;;6246236;22;20027;-81
2021/12/25 14:00:59;;;;;;;0.20;0.20;;;1.10;91.10;;;;;;6245905;22;20008;-81
2021/12/25 14:03:26;;;;;;;0.20;0.17;;;1.10;91.10;;;;;;6194913;22;20012;-80
2021/12/25 14:05:54;;;;;;;0.22;0.17;;;1.00;91.00;;;;;;6219108;22;20012;-80
2021/12/25 14:08:23;;;;;;;0.10;0.10;;;1.00;91.00;;;;;;6194007;23;20035;-82
2021/12/25 14:10:50;;;;;;;0.32;0.20;;;1.00;91.00;;;;;;6218946;23;20016;-81
2021/12/25 14:13:18;;;;;;;0.20;0.20;;;1.00;90.90;;;;;;6219224;22;20027;-81
2021/12/25 14:15:51;;;;;;;0.15;0.15;;;1.10;90.90;;;;;;6219472;23;20069;-81
2021/12/25 14:18:19;;;;;;;1.13;0.32;;;1.00;90.90;;;;;;6194607;22;20019;-81
2021/12/25 14:20:45;;;;;;;0.22;0.22;;;1.00;90.80;;;;;;6194114;23;20011;-81
2021/12/25 14:23:17;;;;;;;0.80;0.30;;;0.90;90.80;;;;;;6169268;22;20019;-81
2021/12/25 14:25:51;;;;;;;0.22;0.22;;;1.00;90.70;;;;;;6194085;22;20090;-81
2021/12/25 14:28:22;;;;;;;0.82;0.50;;;0.90;90.70;;;;;;6245900;22;20091;-81
2021/12/25 14:31:01;;;;;;;0.40;0.20;;;0.80;90.70;;;;;;6246077;22;20338;-81
2021/12/25 14:33:29;;;;;;;0.73;0.45;;;0.80;90.70;;;;;;6218290;22;20020;-81
2021/12/25 14:35:56;;;;;;;1.05;0.30;;;0.80;90.70;;;;;;6218750;22;20070;-80
2021/12/25 14:38:22;;;;;;;0.15;0.08;;;0.80;90.70;;;;;;6193411;23;20435;-80
2021/12/25 14:40:50;;;;;;;0.68;0.30;;;0.80;90.70;;;;;;6245842;22;20008;-80
2021/12/25 14:43:19;;;;;;;0.40;0.28;;;1.10;90.90;;;;;;6193675;22;20486;-80
2021/12/25 14:45:53;;;;;;;0.47;0.30;;;1.50;90.50;;;;;;6245245;22;20091;-80
2021/12/25 14:48:29;;;;;;;0.28;0.20;;;1.60;89.80;;;;;;6194514;22;20424;-80
2021/12/25 14:50:59;;;;;;;0.55;0.30;;;1.50;88.60;;;;;;6219778;23;20012;-80
2021/12/25 14:53:27;;;;;;;0.50;0.30;;;1.40;88.80;;;;;;6193265;23;20008;-79
2021/12/25 14:55:56;;;;;;;1.65;0.20;;;1.10;89.20;;;;;;6221899;22;20073;-79
2021/12/25 14:58:25;;;;;;;0.40;0.30;;;0.90;89.80;;;;;;6248514;22;20004;-80
2021/12/25 15:01:06;;;;;;;0.32;0.30;;;0.80;90.10;;;;;;6245927;22;20004;-80
2021/12/25 15:03:32;;;;;;;0.17;0.15;;;0.60;90.20;;;;;;6219010;23;20016;-80
2021/12/25 15:05:58;;;;;;;0.17;0.17;;;0.60;90.40;;;;;;6218868;22;20088;-80
2021/12/25 15:08:34;;;;;;;0.10;0.10;;;0.40;90.50;;;;;;6193505;22;20504;-81
2021/12/25 15:11:08;;;;;;;0.20;0.20;;;0.30;90.50;;;;;;6245466;22;20443;-80
2021/12/25 15:13:35;;;;;;;0.20;0.17;;;0.20;90.60;;;;;;6245148;22;20024;-80
2021/12/25 15:16:01;;;;;;;0.13;0.10;;;0.20;90.60;;;;;;6244962;22;20083;-80
2021/12/25 15:18:32;;;;;;;0.13;0.13;;;0.10;90.60;;;;;;6218339;23;20014;-81
2021/12/25 15:21:16;;;;;;;0.95;0.30;;;0.00;90.60;;;;;;6218228;23;20066;-80
2021/12/25 15:23:42;;;;;;;0.65;0.30;;;0.00;90.70;;;;;;6218184;22;20476;-80
2021/12/25 15:26:13;;;;;;;0.35;0.17;;;-0.10;90.70;;;;;;6168322;22;20086;-81
2021/12/25 15:28:42;;;;;;;0.20;0.20;;;-0.10;90.70;;;;;;6193532;22;20086;-80
2021/12/25 15:31:26;;;;;;;0.55;0.25;;;-0.20;90.70;;;;;;6218091;22;20018;-83
2021/12/25 15:33:57;;;;;;;0.63;0.20;;;-0.20;90.70;;;;;;6193126;22;20383;-79
2021/12/25 15:36:24;;;;;;;0.20;0.20;;;-0.30;90.70;;;;;;6194108;22;20012;-81
2021/12/25 15:38:51;;;;;;;0.30;0.22;;;-0.30;90.70;;;;;;6218156;22;20010;-81
2021/12/25 15:41:17;;;;;;;0.25;0.13;;;-0.40;90.70;;;;;;6217808;22;20067;-83
2021/12/25 15:43:44;;;;;;;0.40;0.25;;;-0.40;90.70;;;;;;6192927;23;20008;-80
2021/12/25 15:46:11;;;;;;;0.20;0.20;;;-0.40;90.70;;;;;;6218132;22;20337;-81
2021/12/25 15:48:37;;;;;;;1.33;0.43;;;-0.50;90.60;;;;;;6193336;23;20016;-80
2021/12/25 15:51:05;;;;;;;0.38;0.15;;;-0.50;90.60;;;;;;6193293;22;20091;-81
2021/12/25 15:53:31;;;;;;;0.32;0.20;;;-0.60;90.50;;;;;;6193160;22;20008;-80
2021/12/25 15:55:57;;;;;;;0.20;0.20;;;-0.60;90.50;;;;;;6244985;22;20078;-80
2021/12/25 15:58:23;;;;;;;0.68;0.30;;;-0.50;90.50;;;;;;6168224;22;20001;-80
2021/12/25 16:00:51;;;;;;;0.20;0.20;;;-0.50;90.50;;;;;;6246332;22;20038;-80
2021/12/25 16:03:18;;;;;;;0.38;0.20;;;-0.60;90.50;;;;;;6246180;22;20035;-80
2021/12/25 16:05:45;;;;;;;0.20;0.20;;;-0.70;90.50;;;;;;6193989;22;20036;-81
2021/12/25 16:08:12;;;;;;;0.20;0.10;;;-0.70;90.50;;;;;;6168388;22;20014;-81
2021/12/25 16:10:38;;;;;;;0.22;0.20;;;-0.80;90.50;;;;;;6194498;22;20066;-83
2021/12/25 16:13:05;;;;;;;0.93;0.30;;;-0.70;90.50;;;;;;6247087;22;20384;-82
2021/12/25 16:15:32;;;;;;;0.88;0.22;;;-0.70;90.50;;;;;;6223275;23;20004;-82
2021/12/25 16:17:58;;;;;;;0.32;0.25;;;-0.80;90.40;;;;;;6168862;22;20371;-83
2021/12/25 16:20:24;;;;;;;0.15;0.15;;;-0.80;90.50;;;;;;6192909;22;20008;-82
2021/12/25 16:22:50;;;;;;;0.10;0.10;;;-0.80;90.50;;;;;;6218260;23;20101;-82
2021/12/25 16:25:19;;;;;;;0.10;0.10;;;-0.80;90.40;;;;;;6221843;22;20064;-80
2021/12/25 16:27:45;;;;;;;0.10;0.10;;;-0.90;90.40;;;;;;6193672;22;20042;-80
2021/12/25 16:30:12;;;;;;;0.28;0.20;;;-0.80;90.40;;;;;;6245159;22;20289;-83
2021/12/25 16:32:39;;;;;;;0.10;0.10;;;-0.90;90.40;;;;;;6245184;22;20062;-82
2021/12/25 16:35:06;;;;;;;0.45;0.20;;;-0.90;90.40;;;;;;6219468;23;20012;-82
2021/12/25 16:37:32;;;;;;;0.20;0.20;;;-1.00;90.40;;;;;;6196161;23;20008;-82
2021/12/25 16:39:58;;;;;;;1.00;0.20;;;-1.10;90.40;;;;;;6197552;22;20091;-80
2021/12/25 16:42:24;;;;;;;0.20;0.20;;;-1.00;90.40;;;;;;6197819;22;20059;-80
2021/12/25 16:44:49;;;;;;;0.25;0.22;;;-1.10;90.30;;;;;;6219556;22;20015;-82
2021/12/25 16:47:17;;;;;;;0.25;0.10;;;-1.10;90.30;;;;;;6218873;22;20015;-83
2021/12/25 16:49:43;;;;;;;0.65;0.40;;;-1.10;90.30;;;;;;6193325;22;20012;-83
2021/12/25 16:52:09;;;;;;;0.30;0.20;;;-1.10;90.30;;;;;;6218002;23;20095;-80
2021/12/25 16:54:35;;;;;;;0.20;0.20;;;-1.20;90.20;;;;;;6218476;23;20058;-81
2021/12/25 16:57:01;;;;;;;0.35;0.20;;;-1.20;90.20;;;;;;6219191;22;20004;-80
2021/12/25 16:59:30;;;;;;;0.30;0.30;;;-1.20;90.10;;;;;;6218716;22;20012;-81
2021/12/25 17:01:57;;;;;;;0.47;0.20;;;-1.20;90.10;;;;;;6169398;22;20035;-82
2021/12/25 17:04:24;;;;;;;0.20;0.20;;;-1.20;90.10;;;;;;6193966;23;20008;-82
2021/12/25 17:06:50;;;;;;;0.40;0.20;;;-1.20;90.10;;;;;;6246326;22;20012;-81
2021/12/25 17:09:16;;;;;;;0.32;0.20;;;-1.30;90.10;;;;;;6193835;22;20103;-82
2021/12/25 17:11:42;;;;;;;0.30;0.20;;;-1.30;90.10;;;;;;6218351;22;20038;-81
2021/12/25 17:14:08;;;;;;;0.40;0.30;;;-1.40;90.10;;;;;;6219493;23;20454;-80
2021/12/25 17:16:34;;;;;;;0.65;0.40;;;-1.40;90.00;;;;;;6196000;23;20008;-80
2021/12/25 17:19:03;;;;;;;1.02;0.20;;;-1.40;90.00;;;;;;6196331;22;20027;-80
2021/12/25 17:21:29;;;;;;;0.30;0.20;;;-1.40;90.00;;;;;;6169938;22;20008;-81
2021/12/25 17:23:55;;;;;;;0.22;0.17;;;-1.40;90.00;;;;;;6219012;23;20004;-81
2021/12/25 17:26:21;;;;;;;0.30;0.15;;;-1.40;90.00;;;;;;6219695;22;20004;-80